Time;durP1;ratioP1;P1;durP2;ratioP2;P2;SDS_P1;SDS_P2;PMS_P1;PMS_P2;Temp;Humidity;BMP_temperature;BMP_pressure;BME280_temperature;BME280_humidity;BME280_pressure;Samples;Min_cycle;Max_cycle;Signal;HPM_P1;HPM_P2
2023/03/01 00:01:57;;;;;;;72.40;34.20;;;;;;;-1.24;82.30;101591.61;106117;1256;64563;-84
2023/03/01 00:04:27;;;;;;;56.30;28.30;;;;;;;-1.26;82.22;101588.50;106219;1257;73945;-84
2023/03/01 00:06:56;;;;;;;41.50;24.50;;;;;;;-1.30;82.29;101589.35;106244;1256;60451;-81
2023/03/01 00:09:25;;;;;;;42.30;23.00;;;;;;;-1.32;82.15;101586.25;106315;1259;60378;-83
2023/03/01 00:11:53;;;;;;;40.30;24.40;;;;;;;-1.33;82.32;101585.57;106148;1257;73572;-84
2023/03/01 00:14:23;;;;;;;37.30;22.80;;;;;;;-1.32;82.68;101575.63;106095;1255;64070;-84
2023/03/01 00:16:52;;;;;;;42.60;23.80;;;;;;;-1.29;83.10;101571.00;106020;1257;72940;-84
2023/03/01 00:19:22;;;;;;;38.60;23.60;;;;;;;-1.24;83.27;101562.45;106144;1256;60585;-83
2023/03/01 00:21:53;;;;;;;44.40;26.00;;;;;;;-1.19;83.18;101550.45;106346;1259;60179;-84
2023/03/01 00:24:21;;;;;;;39.40;24.30;;;;;;;-1.16;82.98;101543.42;106325;1256;74813;-82
2023/03/01 00:26:55;;;;;;;40.00;23.60;;;;;;;-1.16;82.89;101547.36;106205;1256;63825;-82
2023/03/01 00:29:24;;;;;;;42.60;24.10;;;;;;;-1.18;82.61;101550.98;106301;1259;72669;-82
2023/03/01 00:31:52;;;;;;;43.90;25.70;;;;;;;-1.21;82.59;101553.53;106092;1256;60553;-82
2023/03/01 00:34:20;;;;;;;50.40;25.40;;;;;;;-1.27;82.44;101548.36;106242;1259;60553;-84
2023/03/01 00:36:49;;;;;;;49.90;26.70;;;;;;;-1.30;82.38;101551.95;106324;1259;74746;-83
2023/03/01 00:39:20;;;;;;;42.10;24.00;;;;;;;-1.33;82.47;101555.89;106032;1256;64709;-83
2023/03/01 00:41:49;;;;;;;42.70;24.90;;;;;;;-1.34;82.78;101554.16;105831;1255;73365;-82
2023/03/01 00:44:18;;;;;;;45.50;26.80;;;;;;;-1.34;83.22;101557.59;105782;1256;60595;-83
2023/03/01 00:46:49;;;;;;;48.30;28.10;;;;;;;-1.32;83.33;101557.95;106006;1259;61318;-82
2023/03/01 00:49:18;;;;;;;48.90;29.10;;;;;;;-1.30;83.38;101548.36;105820;1256;74574;-82
2023/03/01 00:51:46;;;;;;;52.70;30.80;;;;;;;-1.30;82.99;101546.64;105864;1255;64040;-83
2023/03/01 00:54:15;;;;;;;53.00;28.20;;;;;;;-1.30;83.16;101544.41;106001;1255;73744;-84
2023/03/01 00:56:43;;;;;;;48.40;27.50;;;;;;;-1.32;82.85;101540.46;105895;1259;60550;-83
2023/03/01 00:59:14;;;;;;;51.20;28.30;;;;;;;-1.34;82.47;101533.08;105964;1257;61144;-83
2023/03/01 01:01:43;;;;;;;50.10;28.70;;;;;;;-1.39;82.57;101529.96;106347;1259;75043;-83
2023/03/01 01:04:12;;;;;;;50.80;27.90;;;;;;;-1.42;83.02;101536.30;106289;1259;64944;-83
2023/03/01 01:06:43;;;;;;;51.20;29.20;;;;;;;-1.46;83.31;101531.32;106082;1256;73643;-80
2023/03/01 01:09:19;;;;;;;57.10;31.30;;;;;;;-1.47;83.38;101529.08;106530;1255;60546;-84
2023/03/01 01:11:49;;;;;;;52.00;32.20;;;;;;;-1.47;83.35;101528.21;106103;1257;60433;-84
2023/03/01 01:14:18;;;;;;;58.00;31.60;;;;;;;-1.47;83.46;101525.65;106007;1257;73797;-83
2023/03/01 01:16:46;;;;;;;58.60;32.90;;;;;;;-1.51;83.31;101526.32;105975;1256;65209;-85
2023/03/01 01:19:16;;;;;;;56.90;31.20;;;;;;;-1.53;83.29;101525.63;106074;1256;73597;-83
2023/03/01 01:21:45;;;;;;;45.50;28.00;;;;;;;-1.55;83.19;101519.61;106147;1256;60900;-82
2023/03/01 01:24:14;;;;;;;60.20;28.10;;;;;;;-1.57;83.43;101519.10;106071;1257;60358;-82
2023/03/01 01:26:42;;;;;;;43.70;23.80;;;;;;;-1.58;83.39;101522.34;106024;1255;75146;-84
2023/03/01 01:29:12;;;;;;;41.80;25.40;;;;;;;-1.58;83.61;101527.48;105890;1255;65119;-85
2023/03/01 01:31:41;;;;;;;45.00;25.70;;;;;;;-1.55;83.93;101527.84;105896;1260;73635;-83
2023/03/01 01:34:16;;;;;;;47.20;27.30;;;;;;;-1.51;83.86;101527.35;106754;1256;60535;-84
2023/03/01 01:36:48;;;;;;;38.00;24.90;;;;;;;-1.49;83.83;101527.16;106400;1256;60320;-83
2023/03/01 01:39:16;;;;;;;41.20;24.50;;;;;;;-1.52;83.69;101532.65;106144;1256;73771;-85
2023/03/01 01:41:45;;;;;;;36.80;22.20;;;;;;;-1.54;83.31;101530.24;105974;1257;63635;-85
2023/03/01 01:44:15;;;;;;;35.00;22.10;;;;;;;-1.58;83.46;101530.40;106089;1256;73559;-83
2023/03/01 01:46:47;;;;;;;36.80;21.50;;;;;;;-1.61;83.69;101530.04;107488;1255;61835;-83
2023/03/01 01:49:25;;;;;;;30.20;19.40;;;;;;;-1.61;83.75;101529.71;107503;1255;61343;-83
2023/03/01 01:52:14;;;;;;;24.90;17.30;;;;;;;-1.62;84.10;101528.33;107501;1257;73692;-83
2023/03/01 01:55:05;;;;;;;24.40;16.20;;;;;;;-1.60;84.52;101527.98;106390;1260;64979;-84
2023/03/01 01:57:42;;;;;;;29.90;19.20;;;;;;;-1.57;84.06;101523.38;105859;1259;73251;-84
2023/03/01 02:00:16;;;;;;;25.20;17.80;;;;;;;-1.58;83.97;101520.97;105781;1256;60502;-86
2023/03/01 02:02:45;;;;;;;31.30;17.10;;;;;;;-1.58;83.87;101518.06;105923;1257;60431;-85
2023/03/01 02:05:20;;;;;;;26.20;16.80;;;;;;;-1.59;83.81;101514.79;105888;1257;73800;-83
2023/03/01 02:07:49;;;;;;;23.60;15.70;;;;;;;-1.62;83.78;101510.83;105747;1261;64733;-85
2023/03/01 02:10:21;;;;;;;29.00;17.90;;;;;;;-1.64;83.60;101506.20;105925;1259;72961;-82
2023/03/01 02:12:50;;;;;;;25.40;16.10;;;;;;;-1.67;83.56;101501.73;105906;1262;61531;-85
2023/03/01 02:15:19;;;;;;;21.50;14.20;;;;;;;-1.68;83.99;101506.36;105857;1257;61303;-84
2023/03/01 02:17:53;;;;;;;19.80;14.50;;;;;;;-1.68;84.25;101500.01;105929;1258;74895;-84
2023/03/01 02:20:56;;;;;;;25.50;14.20;;;;;;;-1.65;84.35;101488.71;106019;1257;64458;-83
2023/03/01 02:23:25;;;;;;;23.00;15.70;;;;;;;-1.61;84.24;101493.35;105467;1257;534837;-86
2023/03/01 02:27:09;;;;;;;21.70;14.30;;;;;;;-1.55;84.02;101494.06;102638;1297;600144;-83
2023/03/01 02:29:38;;;;;;;24.00;14.80;;;;;;;-1.57;83.59;101490.80;104964;1268;59623;-84
2023/03/01 02:32:07;;;;;;;19.80;13.30;;;;;;;-1.59;83.25;101484.96;105212;1266;60697;-84
2023/03/01 02:34:35;;;;;;;18.90;12.70;;;;;;;-1.62;83.23;101480.48;105352;1266;71196;-83
2023/03/01 02:37:11;;;;;;;22.80;14.90;;;;;;;-1.64;83.15;101476.55;105926;1270;63796;-84
2023/03/01 02:39:42;;;;;;;20.70;12.70;;;;;;;-1.65;83.05;101467.45;108102;1264;589794;-81
2023/03/01 02:42:15;;;;;;;19.50;13.30;;;;;;;-1.69;83.15;101467.27;108660;1264;59576;-83
2023/03/01 02:44:44;;;;;;;14.20;11.50;;;;;;;-1.71;83.33;101465.38;105726;1264;60337;-86
2023/03/01 02:47:13;;;;;;;19.30;10.30;;;;;;;-1.70;83.41;101454.73;105797;1263;72031;-84
2023/03/01 02:49:42;;;;;;;19.90;12.00;;;;;;;-1.69;83.28;101451.31;105618;1269;65569;-83
2023/03/01 02:52:33;;;;;;;29.10;18.90;;;;;;;-1.70;83.11;101450.45;105522;1264;73672;-84
2023/03/01 02:55:12;;;;;;;37.40;20.70;;;;;;;-1.73;82.88;101443.94;105476;1265;59761;-85
2023/03/01 02:57:44;;;;;;;37.60;20.70;;;;;;;-1.78;82.47;101439.12;105502;1265;60020;-84
2023/03/01 03:00:24;;;;;;;34.00;21.10;;;;;;;-1.84;82.41;101433.27;105963;1255;73972;-86
2023/03/01 03:02:54;;;;;;;41.60;22.40;;;;;;;-1.90;82.28;101424.84;105966;1256;65067;-84
2023/03/01 03:05:28;;;;;;;45.50;24.00;;;;;;;-1.96;82.53;101426.02;105980;1256;72575;-84
2023/03/01 03:08:00;;;;;;;45.00;20.60;;;;;;;-1.98;82.80;101424.29;105913;1255;62697;-84
2023/03/01 03:10:32;;;;;;;41.70;21.30;;;;;;;-1.99;83.11;101418.80;105925;1256;61006;-83
2023/03/01 03:13:09;;;;;;;41.80;22.40;;;;;;;-1.98;83.40;101414.70;105966;1256;74048;-84
2023/03/01 03:15:39;;;;;;;35.80;21.80;;;;;;;-1.98;83.14;101414.02;107860;1259;63778;-82
2023/03/01 03:18:11;;;;;;;35.80;20.20;;;;;;;-2.00;83.05;101408.17;107067;1256;73824;-84
2023/03/01 03:20:39;;;;;;;26.10;18.00;;;;;;;-2.03;83.10;101416.04;106405;1256;59657;-83
2023/03/01 03:23:07;;;;;;;36.10;17.10;;;;;;;-2.07;83.10;101419.27;106742;1256;61279;-83
2023/03/01 03:25:37;;;;;;;25.30;16.30;;;;;;;-2.10;82.95;101418.58;106279;1256;74291;-84
2023/03/01 03:28:09;;;;;;;30.70;17.90;;;;;;;-2.14;83.04;101419.23;105955;1261;64640;-82
2023/03/01 03:30:39;;;;;;;26.70;16.10;;;;;;;-2.16;83.18;101418.20;105894;1256;73379;-85
2023/03/01 03:33:09;;;;;;;30.00;17.00;;;;;;;-2.19;83.24;101405.35;105965;1256;60701;-83
2023/03/01 03:35:46;;;;;;;31.30;17.90;;;;;;;-2.20;83.44;101399.02;106256;1255;61302;-84
2023/03/01 03:38:16;;;;;;;26.50;16.30;;;;;;;-2.20;83.41;101382.91;106186;1255;72949;-85
2023/03/01 03:40:49;;;;;;;28.50;16.90;;;;;;;-2.22;83.40;101380.16;105986;1256;64916;-85
2023/03/01 03:43:20;;;;;;;27.20;15.40;;;;;;;-2.25;83.51;101375.86;105988;1259;73626;-84
2023/03/01 03:45:50;;;;;;;26.20;16.10;;;;;;;-2.29;83.39;101378.91;106158;1254;60553;-82
2023/03/01 03:48:20;;;;;;;23.10;14.00;;;;;;;-2.31;83.62;101388.67;106125;1253;61334;-84
2023/03/01 03:50:50;;;;;;;22.60;15.20;;;;;;;-2.32;83.71;101391.74;106288;1252;70858;-84
2023/03/01 03:53:19;;;;;;;22.20;15.00;;;;;;;-2.35;83.78;101392.76;106263;1257;64288;-84
2023/03/01 03:55:49;;;;;;;20.20;13.70;;;;;;;-2.37;84.05;101388.64;106785;1255;72623;-84
2023/03/01 03:58:19;;;;;;;22.30;13.40;;;;;;;-2.36;84.45;101387.79;106223;1257;59585;-84
2023/03/01 04:00:51;;;;;;;20.20;13.50;;;;;;;-2.35;84.76;101381.80;106296;1253;59977;-85
2023/03/01 04:03:21;;;;;;;20.90;14.90;;;;;;;-2.33;84.61;101368.27;106372;1254;74022;-86
2023/03/01 04:05:50;;;;;;;28.30;16.50;;;;;;;-2.33;84.59;101346.71;106622;1253;63487;-82
2023/03/01 04:08:21;;;;;;;30.10;15.40;;;;;;;-2.36;84.36;101336.23;106648;1257;74206;-85
2023/03/01 04:10:52;;;;;;;28.50;17.00;;;;;;;-2.43;84.29;101330.05;106265;1257;60360;-85
2023/03/01 04:13:26;;;;;;;32.00;16.80;;;;;;;-2.49;84.38;101332.58;106269;1253;61472;-86
2023/03/01 04:15:54;;;;;;;30.80;18.00;;;;;;;-2.51;84.34;101340.64;105851;1253;73722;-85
2023/03/01 04:18:24;;;;;;;31.30;17.80;;;;;;;-2.52;84.50;101344.90;106165;1256;64505;-85
2023/03/01 04:20:55;;;;;;;27.00;14.30;;;;;;;-2.53;84.76;101340.27;106246;1253;73655;-85
2023/03/01 04:23:25;;;;;;;19.80;13.80;;;;;;;-2.51;85.01;101339.43;106209;1253;60314;-84
2023/03/01 04:25:58;;;;;;;19.10;12.60;;;;;;;-2.50;85.19;101337.03;106246;1252;60986;-84
2023/03/01 04:28:36;;;;;;;22.00;13.50;;;;;;;-2.48;85.18;101338.41;106175;1252;72933;-84
2023/03/01 04:31:12;;;;;;;17.50;12.10;;;;;;;-2.47;85.03;101337.56;106340;1253;63675;-85
2023/03/01 04:33:47;;;;;;;16.90;12.20;;;;;;;-2.46;85.01;101343.04;106078;1253;73657;-83
2023/03/01 04:36:17;;;;;;;15.90;11.60;;;;;;;-2.48;84.87;101341.49;106128;1253;59747;-84
2023/03/01 04:38:48;;;;;;;15.40;11.10;;;;;;;-2.50;84.61;101341.31;106226;1252;60060;-83
2023/03/01 04:41:19;;;;;;;17.90;12.30;;;;;;;-2.51;84.68;101334.98;106190;1252;74155;-85
2023/03/01 04:43:49;;;;;;;19.20;12.80;;;;;;;-2.52;84.33;101324.18;106181;1253;64898;-84
2023/03/01 04:46:19;;;;;;;17.60;12.70;;;;;;;-2.52;84.84;101330.35;108212;1252;73637;-83
2023/03/01 04:48:48;;;;;;;19.60;12.20;;;;;;;-2.48;84.83;101328.82;106599;1253;59648;-84
2023/03/01 04:51:18;;;;;;;19.10;11.70;;;;;;;-2.44;85.14;101329.19;106514;1257;60122;-86
2023/03/01 04:53:48;;;;;;;21.30;12.70;;;;;;;-2.37;84.87;101337.27;107708;1253;73088;-86
2023/03/01 04:56:17;;;;;;;19.00;11.40;;;;;;;-2.30;84.79;101346.89;106742;1256;64838;-83
2023/03/01 04:58:48;;;;;;;17.10;10.90;;;;;;;-2.25;84.53;101360.10;106656;1253;72572;-86
2023/03/01 05:01:18;;;;;;;23.50;12.40;;;;;;;-2.23;84.14;101357.89;106555;1253;60315;-85
2023/03/01 05:03:48;;;;;;;18.20;11.60;;;;;;;-2.24;83.90;101359.77;106421;1256;59974;-86
2023/03/01 05:06:20;;;;;;;19.30;12.30;;;;;;;-2.24;83.60;101355.83;106264;1253;73003;-85
2023/03/01 05:08:48;;;;;;;20.50;13.00;;;;;;;-2.19;83.51;101358.93;106304;1253;63500;-85
2023/03/01 05:11:22;;;;;;;17.70;11.70;;;;;;;-2.15;83.53;101368.88;106268;1257;73318;-85
2023/03/01 05:13:54;;;;;;;20.60;12.70;;;;;;;-2.11;83.66;101376.79;106729;1253;60101;-86
2023/03/01 05:16:23;;;;;;;20.90;11.60;;;;;;;-2.03;83.85;101378.86;106390;1253;61738;-86
2023/03/01 05:18:56;;;;;;;18.30;12.50;;;;;;;-1.93;83.78;101372.05;106525;1252;72637;-84
2023/03/01 05:21:25;;;;;;;19.00;13.00;;;;;;;-1.85;83.56;101371.22;106582;1253;64827;-84
2023/03/01 05:23:56;;;;;;;18.70;12.60;;;;;;;-1.78;83.35;101374.32;106443;1252;73623;-83
2023/03/01 05:26:28;;;;;;;22.10;13.50;;;;;;;-1.72;82.88;101372.63;106516;1252;60613;-84
2023/03/01 05:28:58;;;;;;;20.90;13.60;;;;;;;-1.61;82.94;101370.77;106418;1253;61013;-87
2023/03/01 05:31:30;;;;;;;23.90;14.50;;;;;;;-1.38;82.94;101359.84;106636;1253;73507;-84
2023/03/01 05:34:01;;;;;;;18.00;12.90;;;;;;;-1.09;82.48;101359.50;106531;1256;64840;-85
2023/03/01 05:36:34;;;;;;;18.60;12.40;;;;;;;-0.70;81.81;101357.75;106851;1256;73847;-84
2023/03/01 05:39:03;;;;;;;28.10;15.20;;;;;;;-0.24;80.85;101361.75;106681;1258;61859;-86
2023/03/01 05:41:33;;;;;;;19.90;12.60;;;;;;;0.15;79.56;101359.54;106632;1253;61846;-84
2023/03/01 05:44:04;;;;;;;16.50;11.80;;;;;;;0.55;78.29;101353.45;106403;1252;73856;-84
2023/03/01 05:46:33;;;;;;;20.20;11.50;;;;;;;1.11;76.82;101353.35;106357;1253;64972;-83
2023/03/01 05:49:02;;;;;;;17.40;11.90;;;;;;;1.67;74.87;101360.53;106486;1253;73951;-86
2023/03/01 05:51:32;;;;;;;17.90;12.70;;;;;;;2.26;73.00;101364.11;106490;1253;59728;-84
2023/03/01 05:54:01;;;;;;;17.00;11.90;;;;;;;2.79;71.17;101376.47;106429;1253;61043;-88
2023/03/01 05:56:29;;;;;;;15.20;11.50;;;;;;;3.24;69.20;101379.02;108557;1253;73820;-85
2023/03/01 05:58:58;;;;;;;19.10;11.90;;;;;;;3.64;67.39;101376.20;109633;1252;63708;-86
2023/03/01 06:01:27;;;;;;;14.30;11.10;;;;;;;3.99;65.61;101377.95;107488;1252;72306;-86
2023/03/01 06:03:57;;;;;;;14.80;10.50;;;;;;;4.36;63.97;101383.05;106886;1256;59752;-88
2023/03/01 06:06:26;;;;;;;14.40;10.60;;;;;;;4.89;62.78;101381.48;106841;1253;60979;-85
2023/03/01 06:08:57;;;;;;;15.60;12.00;;;;;;;5.52;60.65;101380.05;106668;1253;73984;-85
2023/03/01 06:11:26;;;;;;;21.40;12.00;;;;;;;6.04;58.36;101379.85;106769;1252;64626;-87
2023/03/01 06:13:54;;;;;;;15.90;11.80;;;;;;;6.43;56.54;101374.55;106543;1253;72890;-87
2023/03/01 06:16:30;;;;;;;16.60;11.80;;;;;;;6.81;55.09;101377.70;106483;1258;59805;-84
2023/03/01 06:19:00;;;;;;;16.10;11.70;;;;;;;7.25;54.01;101377.79;106382;1253;59724;-86
2023/03/01 06:21:29;;;;;;;14.50;10.70;;;;;;;7.74;52.25;101371.77;106458;1252;73023;-85
2023/03/01 06:23:57;;;;;;;15.20;11.90;;;;;;;8.21;50.89;101373.30;107366;1257;64844;-85
2023/03/01 06:26:26;;;;;;;17.90;12.70;;;;;;;8.72;49.56;101369.30;106475;1253;72405;-85
2023/03/01 06:28:55;;;;;;;18.80;13.30;;;;;;;9.19;47.92;101369.10;106676;1257;60369;-84
2023/03/01 06:31:23;;;;;;;18.60;12.60;;;;;;;9.57;46.79;101372.86;106381;1258;60013;-86
2023/03/01 06:33:52;;;;;;;20.30;13.00;;;;;;;9.98;45.72;101361.96;106931;1252;73894;-86
2023/03/01 06:36:22;;;;;;;22.40;14.20;;;;;;;10.35;44.38;101360.61;106737;1252;64567;-86
2023/03/01 06:38:53;;;;;;;19.70;13.20;;;;;;;10.59;43.11;101353.04;107150;1252;73626;-87
2023/03/01 06:41:22;;;;;;;18.40;13.60;;;;;;;10.82;42.74;101346.85;107246;1255;60446;-87
2023/03/01 06:43:52;;;;;;;22.80;12.80;;;;;;;11.08;41.45;101342.23;107300;1253;60540;-86
2023/03/01 06:46:22;;;;;;;24.80;14.30;;;;;;;11.27;41.23;101342.98;108277;1252;73479;-86
2023/03/01 06:48:50;;;;;;;24.80;15.10;;;;;;;11.46;40.75;101343.26;107609;1252;64770;-86
2023/03/01 06:51:20;;;;;;;20.90;14.80;;;;;;;11.58;40.60;101346.31;107254;1252;73717;-87
2023/03/01 06:53:49;;;;;;;22.00;16.30;;;;;;;11.39;39.90;101340.48;107803;1253;60397;-88
2023/03/01 06:56:18;;;;;;;27.90;16.00;;;;;;;10.78;39.98;101333.20;106449;1253;60053;-85
2023/03/01 06:58:47;;;;;;;27.00;13.70;;;;;;;9.93;40.32;101329.33;106436;1252;73779;-85
2023/03/01 07:01:15;;;;;;;25.60;13.40;;;;;;;8.98;40.97;101328.44;106703;1252;64806;-86
2023/03/01 07:03:47;;;;;;;20.70;12.30;;;;;;;8.24;42.43;101322.90;107620;1253;72363;-84
2023/03/01 07:06:30;;;;;;;22.00;13.50;;;;;;;7.68;43.67;101313.12;108309;1252;60514;-85
2023/03/01 07:09:34;;;;;;;19.90;13.30;;;;;;;7.17;44.75;101314.27;108194;1252;60416;-84
2023/03/01 07:12:03;;;;;;;23.60;15.20;;;;;;;6.77;45.67;101317.85;107798;1252;73487;-84
2023/03/01 07:14:32;;;;;;;24.60;14.30;;;;;;;6.40;46.19;101320.08;107763;1257;63509;-86
2023/03/01 07:17:01;;;;;;;24.10;15.10;;;;;;;6.10;46.90;101314.41;107696;1252;72769;-87
2023/03/01 07:19:30;;;;;;;28.00;15.70;;;;;;;5.79;47.71;101309.92;107677;1258;60534;-85
2023/03/01 07:22:13;;;;;;;26.20;14.40;;;;;;;5.41;48.81;101306.31;107818;1252;60115;-89
2023/03/01 07:24:42;;;;;;;24.70;17.40;;;;;;;5.03;49.34;101302.62;107792;1252;73556;-86
2023/03/01 07:27:14;;;;;;;30.40;19.10;;;;;;;4.71;49.80;101305.34;107863;1253;65217;-86
2023/03/01 07:29:48;;;;;;;26.00;17.10;;;;;;;4.43;50.55;101305.86;107611;1257;72632;-87
2023/03/01 07:32:18;;;;;;;28.20;19.10;;;;;;;4.20;51.05;101296.33;107558;1253;60415;-87
2023/03/01 07:34:47;;;;;;;31.70;21.10;;;;;;;4.02;51.64;101293.44;107643;1253;61243;-85
2023/03/01 07:37:15;;;;;;;32.70;23.00;;;;;;;3.88;51.97;101296.86;107437;1253;74923;-86
2023/03/01 07:39:45;;;;;;;44.50;24.90;;;;;;;3.72;52.50;101295.13;107214;1257;64592;-85
2023/03/01 07:42:17;;;;;;;33.10;21.50;;;;;;;3.69;53.57;101294.13;107196;1258;73750;-86
2023/03/01 07:45:05;;;;;;;34.30;20.00;;;;;;;4.15;53.77;101292.80;108308;1254;61135;-85
2023/03/01 07:47:36;;;;;;;31.20;20.00;;;;;;;4.90;52.86;101295.70;108893;1253;61199;-86
2023/03/01 07:50:05;;;;;;;36.90;20.60;;;;;;;5.69;51.54;101295.63;109391;1254;73678;-86
2023/03/01 07:52:34;;;;;;;39.90;22.20;;;;;;;6.46;50.20;101294.37;109224;1253;63924;-86
2023/03/01 07:55:03;;;;;;;30.70;21.90;;;;;;;7.21;48.74;101294.45;109156;1253;72526;-86
2023/03/01 07:57:32;;;;;;;37.80;21.90;;;;;;;7.90;46.90;101287.95;109562;1253;59436;-86
2023/03/01 08:00:06;;;;;;;42.10;23.60;;;;;;;8.42;45.79;101288.71;109477;1254;60547;-83
2023/03/01 08:02:43;;;;;;;44.80;24.90;;;;;;;8.93;44.89;101289.60;109461;1254;73508;-83
2023/03/01 08:05:12;;;;;;;33.80;21.40;;;;;;;9.44;44.42;101286.17;109498;1253;64293;-85
2023/03/01 08:07:45;;;;;;;27.50;20.30;;;;;;;10.00;43.08;101282.75;109269;1255;72319;-86
2023/03/01 08:10:13;;;;;;;30.80;20.60;;;;;;;10.47;41.47;101277.55;108927;1255;60066;-85
2023/03/01 08:12:43;;;;;;;30.30;20.20;;;;;;;10.78;40.88;101273.02;108713;1254;60653;-85
2023/03/01 08:15:26;;;;;;;29.70;19.20;;;;;;;11.19;40.25;101268.86;108151;1257;74664;-86
2023/03/01 08:17:56;;;;;;;29.30;20.00;;;;;;;11.54;39.51;101265.06;108297;1254;63574;-88
2023/03/01 08:20:27;;;;;;;33.30;17.50;;;;;;;11.72;38.67;101266.58;109177;1255;72490;-86
2023/03/01 08:22:57;;;;;;;24.20;16.80;;;;;;;11.56;38.38;101265.34;109467;1254;60570;-85
2023/03/01 08:25:26;;;;;;;29.00;18.90;;;;;;;11.41;38.95;101260.17;109487;1254;60028;-85
2023/03/01 08:27:55;;;;;;;28.40;20.30;;;;;;;11.47;39.02;101257.39;109607;1256;73779;-86
2023/03/01 08:30:25;;;;;;;30.40;18.50;;;;;;;11.49;38.54;101249.23;109554;1253;63777;-87
2023/03/01 08:33:08;;;;;;;29.20;19.50;;;;;;;11.48;38.60;101247.20;109612;1253;72631;-85
2023/03/01 08:35:37;;;;;;;28.50;19.70;;;;;;;11.41;38.20;101246.84;109716;1251;60573;-86
2023/03/01 08:38:06;;;;;;;24.90;19.20;;;;;;;11.21;38.00;101244.76;109609;1254;60358;-86
2023/03/01 08:40:39;;;;;;;24.00;18.50;;;;;;;11.03;38.42;101239.92;108871;1254;72548;-86
2023/03/01 08:43:07;;;;;;;40.40;22.30;;;;;;;11.08;38.49;101236.89;108638;1254;63701;-86
2023/03/01 08:45:36;;;;;;;33.90;20.00;;;;;;;11.19;38.63;101235.09;109287;1254;72424;-85
2023/03/01 08:48:05;;;;;;;33.00;19.00;;;;;;;11.37;38.29;101222.41;109286;1254;60133;-86
2023/03/01 08:50:34;;;;;;;26.50;16.10;;;;;;;11.47;38.03;101216.10;109107;1254;61349;-84
2023/03/01 08:53:21;;;;;;;28.70;16.10;;;;;;;11.39;38.05;101210.72;109345;1255;73548;-85
2023/03/01 08:56:02;;;;;;;21.50;13.70;;;;;;;11.15;38.12;101205.55;108966;1257;65242;-87
2023/03/01 08:58:32;;;;;;;19.00;12.00;;;;;;;10.80;38.44;101200.86;106749;1256;72479;-86
2023/03/01 09:01:10;;;;;;;19.00;10.70;;;;;;;10.48;39.04;101203.73;106650;1256;61587;-86
2023/03/01 09:03:46;;;;;;;23.20;11.40;;;;;;;10.18;39.53;101202.05;106218;1256;61298;-87
2023/03/01 09:06:16;;;;;;;22.60;10.80;;;;;;;10.03;40.10;101212.77;106199;1256;73703;-87
2023/03/01 09:08:55;;;;;;;19.20;12.10;;;;;;;9.89;40.67;101209.71;106581;1255;63633;-88
2023/03/01 09:11:24;;;;;;;18.50;9.90;;;;;;;9.75;40.78;101199.58;106528;1255;72624;-86
2023/03/01 09:13:52;;;;;;;19.70;11.00;;;;;;;9.59;40.86;101187.58;109564;1255;60347;-87
2023/03/01 09:16:21;;;;;;;21.00;10.10;;;;;;;9.48;41.17;101176.71;109255;1255;59397;-90
2023/03/01 09:18:53;;;;;;;13.60;9.90;;;;;;;9.64;41.59;101170.73;106645;1256;73740;-87
2023/03/01 09:25:36;;;;;;;15.00;9.00;;;;;;;11.17;40.99;101167.44;106365;1261;73725;-87
2023/03/01 09:32:47;;;;;;;13.20;8.30;;;;;;;13.02;38.03;101170.90;106180;1260;61826;-88
2023/03/01 09:35:16;;;;;;;11.60;8.30;;;;;;;13.37;37.54;101178.54;106273;1256;74752;-88
2023/03/01 09:37:45;;;;;;;12.60;8.20;;;;;;;13.51;36.53;101173.84;106129;1261;65556;-86
2023/03/01 09:40:16;;;;;;;10.50;7.80;;;;;;;13.54;37.08;101172.79;106156;1255;72626;-88
2023/03/01 09:43:08;;;;;;;11.10;8.10;;;;;;;13.88;36.93;101167.79;106472;1255;61339;-90
2023/03/01 09:45:42;;;;;;;13.30;8.90;;;;;;;14.36;36.18;101170.96;106536;1256;61357;-88
2023/03/01 09:48:21;;;;;;;18.00;9.20;;;;;;;14.62;36.17;101169.23;106745;1260;73815;-88
2023/03/01 09:50:50;;;;;;;22.50;10.20;;;;;;;14.81;35.11;101164.22;106807;1255;64262;-86
2023/03/01 09:53:26;;;;;;;19.80;11.70;;;;;;;14.76;35.00;101160.21;106937;1255;72949;-89
2023/03/01 09:56:25;;;;;;;22.70;12.90;;;;;;;14.52;34.65;101155.79;107748;1255;61362;-88
2023/03/01 09:59:37;;;;;;;17.70;11.00;;;;;;;14.13;35.29;101152.63;107819;1256;61389;-88
2023/03/01 10:02:29;;;;;;;20.40;12.20;;;;;;;13.83;36.05;101147.38;108046;1255;73819;-88
2023/03/01 10:05:07;;;;;;;18.30;10.80;;;;;;;13.66;36.41;101149.53;108656;1255;63507;-86
2023/03/01 10:08:18;;;;;;;16.40;11.00;;;;;;;13.43;36.78;101149.41;107973;1256;74072;-88
2023/03/01 10:11:03;;;;;;;22.00;13.20;;;;;;;13.21;37.39;101152.68;107962;1255;61115;-85
2023/03/01 10:14:12;;;;;;;23.50;14.60;;;;;;;13.03;37.57;101153.94;108059;1255;60364;-87
2023/03/01 10:16:53;;;;;;;24.40;14.80;;;;;;;13.08;37.63;101151.39;108662;1255;73781;-88
2023/03/01 10:19:30;;;;;;;20.70;13.00;;;;;;;13.29;37.94;101155.90;109509;1255;63603;-90
2023/03/01 10:22:17;;;;;;;18.40;11.60;;;;;;;13.40;37.13;101158.05;109519;1255;73120;-88
2023/03/01 10:24:49;;;;;;;16.60;11.20;;;;;;;13.11;37.11;101155.92;109459;1255;60114;-88
2023/03/01 10:27:34;;;;;;;16.60;11.80;;;;;;;12.70;37.65;101159.34;109396;1255;59984;-87
2023/03/01 10:30:11;;;;;;;19.80;11.80;;;;;;;12.40;38.45;101157.08;109513;1256;73793;-86
2023/03/01 10:32:40;;;;;;;18.00;12.80;;;;;;;12.21;39.10;101156.59;109546;1255;63489;-86
2023/03/01 10:35:28;;;;;;;20.00;14.10;;;;;;;12.05;39.27;101152.10;109506;1255;72632;-86
2023/03/01 10:38:13;;;;;;;13.80;10.60;;;;;;;11.71;39.33;101151.70;109525;1255;60783;-87
2023/03/01 10:40:55;;;;;;;11.50;9.80;;;;;;;11.27;39.96;101146.11;109492;1255;59333;-86
2023/03/01 10:43:40;;;;;;;15.10;10.50;;;;;;;10.83;40.59;101140.72;109571;1255;73767;-87
2023/03/01 10:46:28;;;;;;;12.70;10.70;;;;;;;10.53;41.50;101141.96;109235;1255;63706;-87
2023/03/01 10:49:16;;;;;;;13.00;10.50;;;;;;;10.43;42.29;101134.94;109555;1255;72616;-87
2023/03/01 10:51:48;;;;;;;11.80;7.90;;;;;;;10.44;42.46;101132.80;109475;1255;60080;-87
2023/03/01 10:54:20;;;;;;;10.50;8.70;;;;;;;10.48;42.35;101136.11;108181;1255;60577;-85
2023/03/01 10:56:55;;;;;;;12.10;10.00;;;;;;;10.37;42.49;101136.10;106421;1258;74185;-87
2023/03/01 10:59:47;;;;;;;12.70;9.10;;;;;;;10.26;42.65;101138.04;107267;1255;63558;-87
2023/03/01 11:02:16;;;;;;;11.90;9.50;;;;;;;10.12;43.15;101126.15;106309;1261;71508;-86
2023/03/01 11:05:23;;;;;;;10.90;8.00;;;;;;;10.07;43.43;101123.64;105912;1263;60548;-86
2023/03/01 11:07:56;;;;;;;10.30;8.40;;;;;;;9.97;43.53;101125.17;105755;1262;61185;-85
2023/03/01 11:10:35;;;;;;;7.60;6.60;;;;;;;9.73;44.03;101126.13;105532;1264;74816;-86
2023/03/01 11:13:14;;;;;;;8.60;6.20;;;;;;;9.48;44.34;101123.00;105531;1262;63531;-85
2023/03/01 11:16:06;;;;;;;7.80;6.70;;;;;;;9.29;45.02;101118.12;105530;1262;73700;-84
2023/03/01 11:18:36;;;;;;;7.20;5.90;;;;;;;9.18;45.63;101115.98;105926;1262;60908;-85
2023/03/01 11:21:15;;;;;;;9.20;7.00;;;;;;;9.10;46.01;101114.97;105947;1260;60558;-86
2023/03/01 11:23:45;;;;;;;10.60;7.30;;;;;;;9.03;45.82;101116.51;105991;1261;74810;-84
2023/03/01 11:26:14;;;;;;;9.20;7.00;;;;;;;8.96;46.24;101113.36;106065;1259;64609;-85
2023/03/01 11:28:42;;;;;;;6.80;5.70;;;;;;;8.95;46.32;101115.99;105954;1266;73299;-85
2023/03/01 11:31:15;;;;;;;10.30;6.00;;;;;;;8.85;46.38;101111.38;105928;1262;60494;-86
2023/03/01 11:33:58;;;;;;;6.60;5.60;;;;;;;8.84;46.83;101112.82;106038;1261;60580;-85
2023/03/01 11:36:26;;;;;;;10.60;6.10;;;;;;;9.00;47.00;101118.59;106128;1262;75144;-85
2023/03/01 11:38:55;;;;;;;8.20;6.50;;;;;;;9.12;46.81;101120.09;106136;1255;63629;-87
2023/03/01 11:41:26;;;;;;;8.40;7.00;;;;;;;9.07;46.43;101121.56;106197;1254;72618;-84